Nagaleader — VRDD5 — position and weather

sailwx.info

Track history (hours):
 
Tides and Currents Weather Stations Pressure Air Temp Water Temp Dewpoint Dewpoint Depression Visibility Wind Speed Wind Dir Waves Ship Positions

Nagaleader

Last reported at 2014-Dec-20 01:28 UTC. Time now 2014-Dec-20 02:17 UTC.
Position N 22°32' E 120°17'.

Length 113 m; draft 5.9 m.

Type: Cargo ship. MMSI: 477926700.

Date/timePositionNaut miles runAvg speedWind from/ knotsBaromVisibWave heightAir tempDewpointWater temp
2014-Dec-20 01:28N 22°32' E 120°17'0 0.1
2014-Dec-20 00:28N 22°32' E 120°17'0 0.0
2014-Dec-19 23:28N 22°32' E 120°17'0 0.0
2014-Dec-19 22:28N 22°32' E 120°17'0 0.0
2014-Dec-19 21:28N 22°32' E 120°17'0 0.0
2014-Dec-19 20:28N 22°32' E 120°17'0 0.0
2014-Dec-19 19:28N 22°32' E 120°17'0 0.0
2014-Dec-19 18:28N 22°32' E 120°17'0 0.0
2014-Dec-19 17:28N 22°32' E 120°17'0 0.0
2014-Dec-19 16:28N 22°32' E 120°17'0 0.0
2014-Dec-19 15:28N 22°32' E 120°17'0 0.0
2014-Dec-19 14:28N 22°32' E 120°17'0 0.0
2014-Dec-19 12:28N 22°32' E 120°17'0 0.0
2014-Dec-19 11:28N 22°32' E 120°17'0 0.1
2014-Dec-19 10:28N 22°32' E 120°17'0 0.1
2014-Dec-19 09:28N 22°32' E 120°17'0 0.0
2014-Dec-19 08:28N 22°32' E 120°17'0 0.0
2014-Dec-19 07:28N 22°32' E 120°17'0 0.0
2014-Dec-19 06:28N 22°32' E 120°17'0 0.0
2014-Dec-19 05:28N 22°32' E 120°17'0 0.0
2014-Dec-19 04:28N 22°32' E 120°17'0 0.0
2014-Dec-19 03:33N 22°32' E 120°17'4 4.0
2014-Dec-19 02:33N 22°32' E 120°13'1212.1
2014-Dec-19 01:33N 22°43' E 120°08'19311.7
2014-Dec-18 09:08N 25°56' E 119°51'1011.2
2014-Dec-18 08:13N 26°05' E 119°47'1111.0
2014-Dec-18 07:14N 26°08' E 119°35'812.1
2014-Dec-18 06:33N 26°01' E 119°30'2 1.4
2014-Dec-18 05:22N 26°00' E 119°29'0 0.0
2014-Dec-18 04:28N 26°00' E 119°29'0 0.0
2014-Dec-18 03:28N 26°00' E 119°29'0 0.0
2014-Dec-18 02:28N 26°00' E 119°29'0 0.0
2014-Dec-18 01:28N 26°00' E 119°29'0 0.0
2014-Dec-18 00:16N 26°00' E 119°29'0 0.0
2014-Dec-17 23:22N 26°00' E 119°29'0 0.0
2014-Dec-17 22:22N 26°00' E 119°29'0 0.0
2014-Dec-17 21:28N 26°00' E 119°29'0 0.0
2014-Dec-17 20:28N 26°00' E 119°29'0 0.0
2014-Dec-17 19:22N 26°00' E 119°29'0 0.0
2014-Dec-17 18:28N 26°00' E 119°29'0 0.0
2014-Dec-17 17:22N 26°00' E 119°29'0 0.0
2014-Dec-17 16:22N 26°00' E 119°29'0 0.1
2014-Dec-17 15:33N 26°00' E 119°29'7 6.9
2014-Dec-17 14:33N 26°06' E 119°32'72 7.2
2014-Dec-17 04:27N 24°56' E 119°15'9 9.9
2014-Dec-17 03:33N 24°50' E 119°08'9 9.2
2014-Dec-17 02:33N 24°41' E 119°04'140 7.4
2014-Dec-16 07:33N 22°34' E 120°09'10 9.6
2014-Dec-16 06:33N 22°34' E 120°19'0 0.2
2014-Dec-16 05:23N 22°34' E 120°19'0 0.0
2014-Dec-16 04:28N 22°34' E 120°19'0 0.0
2014-Dec-16 03:28N 22°34' E 120°19'1 0.2
2014-Dec-15 21:27N 22°33' E 120°20'0 0.0
2014-Dec-15 20:27N 22°33' E 120°20'0 0.1
2014-Dec-15 19:33N 22°33' E 120°20'0 0.1
2014-Dec-15 18:27N 22°33' E 120°20'0 0.0
2014-Dec-15 17:21N 22°33' E 120°20'4 5.6
2014-Dec-15 16:33N 22°32' E 120°15'1110.9
2014-Dec-15 15:33N 22°41' E 120°08'1512.6
2014-Dec-15 14:22N 22°55' E 120°02'5012.6
2014-Dec-15 10:24N 23°44' E 119°55'14111.9
2014-Dec-14 22:32N 26°05' E 119°45'1111.1
2014-Dec-14 21:33N 26°07' E 119°33'7 7.3
2014-Dec-14 20:32N 26°00' E 119°29'0 0.0
2014-Dec-14 19:32N 26°00' E 119°29'0 0.0
2014-Dec-14 18:32N 26°00' E 119°29'0 0.0
2014-Dec-14 17:32N 26°00' E 119°29'0 0.0
2014-Dec-14 16:32N 26°00' E 119°29'0 0.0
2014-Dec-14 15:32N 26°00' E 119°29'0 0.0
2014-Dec-14 14:32N 26°00' E 119°29'0 0.0
2014-Dec-14 13:32N 26°00' E 119°29'0 0.0
2014-Dec-14 12:32N 26°00' E 119°29'0 0.0
2014-Dec-14 11:32N 26°00' E 119°29'0 0.0
2014-Dec-14 10:32N 26°00' E 119°29'0 0.0
2014-Dec-14 09:26N 26°00' E 119°29'0 0.0
2014-Dec-14 08:32N 26°00' E 119°29'0 0.3
2014-Dec-14 07:33N 26°00' E 119°29'81 6.7
2014-Dec-13 19:32N 24°41' E 119°10'8 7.9
2014-Dec-13 18:33N 24°34' E 119°08'114 8.5
2014-Dec-13 05:07N 22°48' E 119°54'712.6
2014-Dec-13 04:33N 22°43' E 119°59'1313.0
2014-Dec-13 03:33N 22°35' E 120°10'8 6.5
2014-Dec-13 02:19N 22°34' E 120°19'0 0.0
2014-Dec-13 01:31N 22°34' E 120°19'0 0.1
2014-Dec-13 00:31N 22°34' E 120°19'0 0.1
2014-Dec-12 23:31N 22°34' E 120°19'0 0.0
2014-Dec-12 22:24N 22°34' E 120°19'0 0.0
2014-Dec-12 21:30N 22°34' E 120°19'0 0.0
2014-Dec-12 20:30N 22°34' E 120°19'0 0.1
2014-Dec-12 19:30N 22°34' E 120°19'0 0.1
2014-Dec-12 18:30N 22°34' E 120°19'0 0.0
2014-Dec-12 17:30N 22°34' E 120°19'0 0.0
2014-Dec-12 16:30N 22°34' E 120°19'0 0.0
2014-Dec-12 15:30N 22°34' E 120°19'0 0.0
2014-Dec-12 14:30N 22°34' E 120°19'0 0.0
2014-Dec-12 13:30N 22°34' E 120°19'2 2.6
2014-Dec-12 12:33N 22°32' E 120°17'0 0.2
2014-Dec-12 11:33N 22°32' E 120°17'0 0.0
2014-Dec-12 10:33N 22°32' E 120°17'0 0.0
2014-Dec-12 09:33N 22°32' E 120°17'0 0.0
2014-Dec-12 08:33N 22°32' E 120°17'0 0.0
2014-Dec-12 07:33N 22°32' E 120°17'0 0.0
2014-Dec-12 06:33N 22°32' E 120°17'0 0.0
2014-Dec-12 05:33N 22°32' E 120°17'0 0.0
2014-Dec-12 04:33N 22°32' E 120°17'0 0.0
2014-Dec-12 03:33N 22°32' E 120°17'0 0.0
2014-Dec-12 02:33N 22°32' E 120°17'0 0.0
2014-Dec-12 01:33N 22°32' E 120°17'0 0.1
2014-Dec-12 00:33N 22°32' E 120°17'0 0.0
2014-Dec-11 23:33N 22°32' E 120°17'0 0.1
2014-Dec-11 22:33N 22°32' E 120°17'0 0.0
2014-Dec-11 21:33N 22°32' E 120°17'0 0.1
2014-Dec-11 20:33N 22°32' E 120°17'9 9.4
2014-Dec-11 19:33N 22°38' E 120°10'20412.7
2014-Dec-11 03:28N 26°01' E 119°50'9 9.2
2014-Dec-11 02:30N 26°06' E 119°41'8 8.8
2014-Dec-11 01:33N 26°06' E 119°32'6 5.9
2014-Dec-11 00:30N 26°00' E 119°29'0 0.0
2014-Dec-10 23:30N 26°00' E 119°29'0 0.0
2014-Dec-10 22:30N 26°00' E 119°29'0 0.0
2014-Dec-10 21:29N 26°00' E 119°29'0 0.0
2014-Dec-10 20:29N 26°00' E 119°29'0 0.0
2014-Dec-10 19:29N 26°00' E 119°29'0 0.0
2014-Dec-10 18:23N 26°00' E 119°29'0 0.0
2014-Dec-10 17:29N 26°00' E 119°29'0 0.0
2014-Dec-10 16:05N 26°00' E 119°29'0 0.0
2014-Dec-10 15:29N 26°00' E 119°29'0 0.1
2014-Dec-10 14:29N 26°00' E 119°29'0 0.1
2014-Dec-10 13:29N 26°00' E 119°29'0 0.0
2014-Dec-10 12:29N 26°00' E 119°29'0 0.0
2014-Dec-10 11:29N 26°00' E 119°29'0 0.0
2014-Dec-10 10:29N 26°00' E 119°29'0 0.0
2014-Dec-10 09:29N 26°00' E 119°29'0 0.0
2014-Dec-10 08:29N 26°00' E 119°29'0 0.0
2014-Dec-10 07:29N 26°00' E 119°29'0 0.0
2014-Dec-10 06:21N 26°00' E 119°29'4 4.8
2014-Dec-10 05:33N 26°04' E 119°31'  
Track history (hours):
 
Tides and Currents Weather Stations Pressure Air Temp Water Temp Dewpoint Dewpoint Depression Visibility Wind Speed Wind Dir Waves Ship Positions

Nagaleader

Last reported at 2014-Dec-20 01:28 UTC. Time now 2014-Dec-20 02:17 UTC.
Position N 22°32' E 120°17'.

Length 113 m; draft 5.9 m.

Type: Cargo ship. MMSI: 477926700.

Date/timePositionNaut miles runAvg speedWind from/ knotsBaromVisibWave heightAir tempDewpointWater temp
2014-Dec-20 01:28N 22°32' E 120°17'0 0.1
2014-Dec-20 00:28N 22°32' E 120°17'0 0.0
2014-Dec-19 23:28N 22°32' E 120°17'0 0.0
2014-Dec-19 22:28N 22°32' E 120°17'0 0.0
2014-Dec-19 21:28N 22°32' E 120°17'0 0.0
2014-Dec-19 20:28N 22°32' E 120°17'0 0.0
2014-Dec-19 19:28N 22°32' E 120°17'0 0.0
2014-Dec-19 18:28N 22°32' E 120°17'0 0.0
2014-Dec-19 17:28N 22°32' E 120°17'0 0.0
2014-Dec-19 16:28N 22°32' E 120°17'0 0.0
2014-Dec-19 15:28N 22°32' E 120°17'0 0.0
2014-Dec-19 14:28N 22°32' E 120°17'0 0.0
2014-Dec-19 12:28N 22°32' E 120°17'0 0.0
2014-Dec-19 11:28N 22°32' E 120°17'0 0.1
2014-Dec-19 10:28N 22°32' E 120°17'0 0.1
2014-Dec-19 09:28N 22°32' E 120°17'0 0.0
2014-Dec-19 08:28N 22°32' E 120°17'0 0.0
2014-Dec-19 07:28N 22°32' E 120°17'0 0.0
2014-Dec-19 06:28N 22°32' E 120°17'0 0.0
2014-Dec-19 05:28N 22°32' E 120°17'0 0.0
2014-Dec-19 04:28N 22°32' E 120°17'0 0.0
2014-Dec-19 03:33N 22°32' E 120°17'4 4.0
2014-Dec-19 02:33N 22°32' E 120°13'1212.1
2014-Dec-19 01:33N 22°43' E 120°08'19311.7
2014-Dec-18 09:08N 25°56' E 119°51'1011.2
2014-Dec-18 08:13N 26°05' E 119°47'1111.0
2014-Dec-18 07:14N 26°08' E 119°35'812.1
2014-Dec-18 06:33N 26°01' E 119°30'2 1.4
2014-Dec-18 05:22N 26°00' E 119°29'0 0.0
2014-Dec-18 04:28N 26°00' E 119°29'0 0.0
2014-Dec-18 03:28N 26°00' E 119°29'0 0.0
2014-Dec-18 02:28N 26°00' E 119°29'0 0.0
2014-Dec-18 01:28N 26°00' E 119°29'0 0.0
2014-Dec-18 00:16N 26°00' E 119°29'0 0.0
2014-Dec-17 23:22N 26°00' E 119°29'0 0.0
2014-Dec-17 22:22N 26°00' E 119°29'0 0.0
2014-Dec-17 21:28N 26°00' E 119°29'0 0.0
2014-Dec-17 20:28N 26°00' E 119°29'0 0.0
2014-Dec-17 19:22N 26°00' E 119°29'0 0.0
2014-Dec-17 18:28N 26°00' E 119°29'0 0.0
2014-Dec-17 17:22N 26°00' E 119°29'0 0.0
2014-Dec-17 16:22N 26°00' E 119°29'0 0.1
2014-Dec-17 15:33N 26°00' E 119°29'7 6.9
2014-Dec-17 14:33N 26°06' E 119°32'72 7.2
2014-Dec-17 04:27N 24°56' E 119°15'9 9.9
2014-Dec-17 03:33N 24°50' E 119°08'9 9.2
2014-Dec-17 02:33N 24°41' E 119°04'140 7.4
2014-Dec-16 07:33N 22°34' E 120°09'10 9.6
2014-Dec-16 06:33N 22°34' E 120°19'0 0.2
2014-Dec-16 05:23N 22°34' E 120°19'0 0.0
2014-Dec-16 04:28N 22°34' E 120°19'0 0.0
2014-Dec-16 03:28N 22°34' E 120°19'1 0.2
2014-Dec-15 21:27N 22°33' E 120°20'0 0.0
2014-Dec-15 20:27N 22°33' E 120°20'0 0.1
2014-Dec-15 19:33N 22°33' E 120°20'0 0.1
2014-Dec-15 18:27N 22°33' E 120°20'0 0.0
2014-Dec-15 17:21N 22°33' E 120°20'4 5.6
2014-Dec-15 16:33N 22°32' E 120°15'1110.9
2014-Dec-15 15:33N 22°41' E 120°08'1512.6
2014-Dec-15 14:22N 22°55' E 120°02'5012.6
2014-Dec-15 10:24N 23°44' E 119°55'14111.9
2014-Dec-14 22:32N 26°05' E 119°45'1111.1
2014-Dec-14 21:33N 26°07' E 119°33'7 7.3
2014-Dec-14 20:32N 26°00' E 119°29'0 0.0
2014-Dec-14 19:32N 26°00' E 119°29'0 0.0
2014-Dec-14 18:32N 26°00' E 119°29'0 0.0
2014-Dec-14 17:32N 26°00' E 119°29'0 0.0
2014-Dec-14 16:32N 26°00' E 119°29'0 0.0
2014-Dec-14 15:32N 26°00' E 119°29'0 0.0
2014-Dec-14 14:32N 26°00' E 119°29'0 0.0
2014-Dec-14 13:32N 26°00' E 119°29'0 0.0
2014-Dec-14 12:32N 26°00' E 119°29'0 0.0
2014-Dec-14 11:32N 26°00' E 119°29'0 0.0
2014-Dec-14 10:32N 26°00' E 119°29'0 0.0
2014-Dec-14 09:26N 26°00' E 119°29'0 0.0
2014-Dec-14 08:32N 26°00' E 119°29'0 0.3
2014-Dec-14 07:33N 26°00' E 119°29'81 6.7
2014-Dec-13 19:32N 24°41' E 119°10'8 7.9
2014-Dec-13 18:33N 24°34' E 119°08'114 8.5
2014-Dec-13 05:07N 22°48' E 119°54'712.6
2014-Dec-13 04:33N 22°43' E 119°59'1313.0
2014-Dec-13 03:33N 22°35' E 120°10'8 6.5
2014-Dec-13 02:19N 22°34' E 120°19'0 0.0
2014-Dec-13 01:31N 22°34' E 120°19'0 0.1
2014-Dec-13 00:31N 22°34' E 120°19'0 0.1
2014-Dec-12 23:31N 22°34' E 120°19'0 0.0
2014-Dec-12 22:24N 22°34' E 120°19'0 0.0
2014-Dec-12 21:30N 22°34' E 120°19'0 0.0
2014-Dec-12 20:30N 22°34' E 120°19'0 0.1
2014-Dec-12 19:30N 22°34' E 120°19'0 0.1
2014-Dec-12 18:30N 22°34' E 120°19'0 0.0
2014-Dec-12 17:30N 22°34' E 120°19'0 0.0
2014-Dec-12 16:30N 22°34' E 120°19'0 0.0
2014-Dec-12 15:30N 22°34' E 120°19'0 0.0
2014-Dec-12 14:30N 22°34' E 120°19'0 0.0
2014-Dec-12 13:30N 22°34' E 120°19'2 2.6
2014-Dec-12 12:33N 22°32' E 120°17'0 0.2
2014-Dec-12 11:33N 22°32' E 120°17'0 0.0
2014-Dec-12 10:33N 22°32' E 120°17'0 0.0
2014-Dec-12 09:33N 22°32' E 120°17'0 0.0
2014-Dec-12 08:33N 22°32' E 120°17'0 0.0
2014-Dec-12 07:33N 22°32' E 120°17'0 0.0
2014-Dec-12 06:33N 22°32' E 120°17'0 0.0
2014-Dec-12 05:33N 22°32' E 120°17'0 0.0
2014-Dec-12 04:33N 22°32' E 120°17'0 0.0
2014-Dec-12 03:33N 22°32' E 120°17'0 0.0
2014-Dec-12 02:33N 22°32' E 120°17'0 0.0
2014-Dec-12 01:33N 22°32' E 120°17'0 0.1
2014-Dec-12 00:33N 22°32' E 120°17'0 0.0
2014-Dec-11 23:33N 22°32' E 120°17'0 0.1
2014-Dec-11 22:33N 22°32' E 120°17'0 0.0
2014-Dec-11 21:33N 22°32' E 120°17'0 0.1
2014-Dec-11 20:33N 22°32' E 120°17'9 9.4
2014-Dec-11 19:33N 22°38' E 120°10'20412.7
2014-Dec-11 03:28N 26°01' E 119°50'9 9.2
2014-Dec-11 02:30N 26°06' E 119°41'8 8.8
2014-Dec-11 01:33N 26°06' E 119°32'6 5.9
2014-Dec-11 00:30N 26°00' E 119°29'0 0.0
2014-Dec-10 23:30N 26°00' E 119°29'0 0.0
2014-Dec-10 22:30N 26°00' E 119°29'0 0.0
2014-Dec-10 21:29N 26°00' E 119°29'0 0.0
2014-Dec-10 20:29N 26°00' E 119°29'0 0.0
2014-Dec-10 19:29N 26°00' E 119°29'0 0.0
2014-Dec-10 18:23N 26°00' E 119°29'0 0.0
2014-Dec-10 17:29N 26°00' E 119°29'0 0.0
2014-Dec-10 16:05N 26°00' E 119°29'0 0.0
2014-Dec-10 15:29N 26°00' E 119°29'0 0.1
2014-Dec-10 14:29N 26°00' E 119°29'0 0.1
2014-Dec-10 13:29N 26°00' E 119°29'0 0.0
2014-Dec-10 12:29N 26°00' E 119°29'0 0.0
2014-Dec-10 11:29N 26°00' E 119°29'0 0.0
2014-Dec-10 10:29N 26°00' E 119°29'0 0.0
2014-Dec-10 09:29N 26°00' E 119°29'0 0.0
2014-Dec-10 08:29N 26°00' E 119°29'0 0.0
2014-Dec-10 07:29N 26°00' E 119°29'0 0.0
2014-Dec-10 06:21N 26°00' E 119°29'4 4.8
2014-Dec-10 05:33N 26°04' E 119°31'  

Dump ship's entire track history